WetterOnline ( http://www.wetteronline.de )

Wetter aktuell Freiburg

Aktuelles Wetter: Freiburg/Flugplatz (236m)

6-stündlich | Neueste Meldungen
Ortszeit Temperatur Wetter
Fr, 20.04. 8:00 11.4° C wolkenlos
Fr, 20.04. 2:00 16.5° C fast wolkenlos
Do, 19.04. 20:00 24.0° C leicht bewölkt
Do, 19.04. 14:00 24.3° C wolkenlos
Do, 19.04. 8:00 11.2° C wolkenlos
Do, 19.04. 2:00 12.7° C wolkig
Mi, 18.04. 20:00 24.4° C wolkig
Mi, 18.04. 14:00 25.5° C leicht bewölkt
Ortszeit Temperatur Wetter
Fr, 20.04. 13:30 25.2° C wolkig
Fr, 20.04. 13:20 25.2° C wolkig
Fr, 20.04. 13:10 24.3° C wolkig
Fr, 20.04. 13:00 24.1° C leicht bewölkt
Fr, 20.04. 12:50 24.1° C wolkig
Fr, 20.04. 12:40 23.4° C wolkig
Fr, 20.04. 12:30 23.3° C wolkig
Fr, 20.04. 12:00 22.5° C leicht bewölkt
Fr, 20.04. 11:30 21.5° C wolkig
Fr, 20.04. 11:00 20.6° C leicht bewölkt
Fr, 20.04. 10:30 19.3° C leicht bewölkt
Ortszeit Relative Feuchte Sichtweite
Fr, 20.04. 8:00 77% 30 km
Fr, 20.04. 2:00 53% 55 km
Do, 19.04. 20:00 35% 55 km
Do, 19.04. 14:00 31% 45 km
Do, 19.04. 8:00 74% 27 km
Do, 19.04. 2:00 61% 50 km
Mi, 18.04. 20:00 23% 70 km
Mi, 18.04. 14:00 22% 60 km
Ortszeit Relative Feuchte Sichtweite
Fr, 20.04. 13:30 40% 35 km
Fr, 20.04. 13:20 40% -
Fr, 20.04. 13:10 40% -
Fr, 20.04. 13:00 39% 30 km
Fr, 20.04. 12:50 39% -
Fr, 20.04. 12:40 40% -
Fr, 20.04. 12:30 44% 35 km
Fr, 20.04. 12:00 44% 35 km
Fr, 20.04. 11:30 46% 35 km
Fr, 20.04. 11:00 49% 30 km
Fr, 20.04. 10:30 51% 30 km
Ortszeit Niederschlagsmenge Niederschlagsart
Fr, 20.04. 8:00 0.0 l/m2 in 12 Std. -
Fr, 20.04. 2:00 0.0 l/m2 in 6 Std. -
Do, 19.04. 20:00 0.0 l/m2 in 12 Std. -
Do, 19.04. 14:00 0.0 l/m2 in 6 Std. -
Do, 19.04. 8:00 0.0 l/m2 in 12 Std. -
Do, 19.04. 2:00 0.0 l/m2 in 6 Std. -
Mi, 18.04. 20:00 0.0 l/m2 in 12 Std. -
Mi, 18.04. 14:00 0.0 l/m2 in 6 Std. -
Ortszeit Niederschlagsmenge Niederschlagsart
Fr, 20.04. 13:30 0.0 l/m2 in 1 Std. -
Fr, 20.04. 13:20 keine Meldung -
Fr, 20.04. 13:10 keine Meldung -
Fr, 20.04. 13:00 0.0 l/m2 in 1 Std. -
Fr, 20.04. 12:50 keine Meldung -
Fr, 20.04. 12:40 keine Meldung -
Fr, 20.04. 12:30 0.0 l/m2 in 1 Std. -
Fr, 20.04. 12:00 0.0 l/m2 in 1 Std. -
Fr, 20.04. 11:30 0.0 l/m2 in 1 Std. -
Fr, 20.04. 11:00 0.0 l/m2 in 1 Std. -
Fr, 20.04. 10:30 0.0 l/m2 in 1 Std. -
Ortszeit Stärke Spitze Richtung
km/h Bft. km/h Grad Sektor
Fr, 20.04. 8:00 4 1 18 10° N
Fr, 20.04. 2:00 6 1 22 250° W
Do, 19.04. 20:00 4 1 22 300° NW
Do, 19.04. 14:00 6 1 15 360° N
Do, 19.04. 8:00 0 0 11 - -
Do, 19.04. 2:00 4 1 25 260° W
Mi, 18.04. 20:00 11 2 43 80° O
Mi, 18.04. 14:00 13 3 31 20° N
Ortszeit Stärke Spitze Richtung
km/h Bft. km/h Grad Sektor
Fr, 20.04. 13:30 4 1 14 330° NW
Fr, 20.04. 13:20 4 1 - 330° NW
Fr, 20.04. 13:10 7 2 - 350° N
Fr, 20.04. 13:00 4 1 11 330° NW
Fr, 20.04. 12:50 4 1 - 330° NW
Fr, 20.04. 12:40 6 1 - 320° NW
Fr, 20.04. 12:30 4 1 7 70° O
Fr, 20.04. 12:00 4 1 7 250° W
Fr, 20.04. 11:30 4 1 7 310° NW
Fr, 20.04. 11:00 6 1 9 310° NW
Fr, 20.04. 10:30 4 1 7 330° NW
Ortszeit Untergrenze Bedeckung Gattung
total tief tief mittel hoch
Fr, 20.04. 8:00 - 0/8 0/8 - - -
Fr, 20.04. 2:00 10500 m 1/8 0/8 - - -
Do, 19.04. 20:00 3600 m 4/8 2/8 - - -
Do, 19.04. 14:00 - 0/8 0/8 - - -
Do, 19.04. 8:00 - 0/8 0/8 - - -
Do, 19.04. 2:00 10500 m 8/8 0/8 - - -
Mi, 18.04. 20:00 10500 m 8/8 0/8 - - -
Mi, 18.04. 14:00 10500 m 8/8 0/8 - - -
Ortszeit Bedeckungsgrad in Achtel und Wolkenuntergrenze
Fr, 20.04. 13:30 8(9000m) 8(10500m)
Fr, 20.04. 13:20 8(9000m) 8(10500m)
Fr, 20.04. 13:10 8(9000m) 8(10500m)
Fr, 20.04. 13:00 5(9000m) 8(9000m)
Fr, 20.04. 12:50 5(9000m) 8(9000m)
Fr, 20.04. 12:40 7(9000m) 8(9000m)
Fr, 20.04. 12:30 7(9000m) 7(10500m)
Fr, 20.04. 12:00 8(9000m) 8(10500m) 7(10500m)
Fr, 20.04. 11:30 8(9000m) 8(9000m)
Fr, 20.04. 11:00 7(9000m) 7(10500m)
Fr, 20.04. 10:30 5(9000m)
Ortszeit Luftdruck NN (hPa) Tendenz (hPa in 3 Std.)
Fr, 20.04. 8:00 1025 + 0,3
Fr, 20.04. 2:00 1024 - 0,2
Do, 19.04. 20:00 1023 - 0,5
Do, 19.04. 14:00 1026 - 1,2
Do, 19.04. 8:00 1028 + 1,0
Do, 19.04. 2:00 1028 - 0,2
Mi, 18.04. 20:00 1026 - 0,2
Mi, 18.04. 14:00 1027 - 1,4
Ortszeit Luftdruck NN (hPa) Tendenz (hPa in 3 Std.)
Fr, 20.04. 13:30 1022 - 0,8
Fr, 20.04. 13:20 1022 keine Meldung
Fr, 20.04. 13:10 1023 keine Meldung
Fr, 20.04. 13:00 1023 - 0,5
Fr, 20.04. 12:50 1023 keine Meldung
Fr, 20.04. 12:40 1023 keine Meldung
Fr, 20.04. 12:30 1023 - 0,3
Fr, 20.04. 12:00 1023 - 0,2
Fr, 20.04. 11:30 1024 - 0,1
Fr, 20.04. 11:00 1024 + 0,1
Fr, 20.04. 10:30 1024 + 0,1
Ortszeit Schneehöhe (cm)
Fr, 20.04. 8:00 0
Fr, 20.04. 2:00 0
Do, 19.04. 20:00 0
Do, 19.04. 14:00 0
Do, 19.04. 8:00 0
Do, 19.04. 2:00 0
Mi, 18.04. 20:00 0
Mi, 18.04. 14:00 0
Ortszeit Schneehöhe (cm)
Fr, 20.04. 13:30 0
Fr, 20.04. 13:20 0
Fr, 20.04. 13:10 0
Fr, 20.04. 13:00 0
Fr, 20.04. 12:50 0
Fr, 20.04. 12:40 0
Fr, 20.04. 12:30 0
Fr, 20.04. 12:00 0
Fr, 20.04. 11:30 0
Fr, 20.04. 11:00 0
Fr, 20.04. 10:30 0
Link zu dieser Seite / Seite empfehlen

Das Wetter in ...